Time;durP1;ratioP1;P1;durP2;ratioP2;P2;SDS_P1;SDS_P2;PMS_P1;PMS_P2;Temp;Humidity;BMP_temperature;BMP_pressure;BME280_temperature;BME280_humidity;BME280_pressure;Samples;Min_cycle;Max_cycle;Signal;HPM_P1;HPM_P2
2024/02/05 00:01:46;;;;;;;0.98;0.70;;;;;;;;;;5072502;28;20052;-82
2024/02/05 00:04:13;;;;;;;0.75;0.73;;;;;;;;;;5043862;28;20049;-82
2024/02/05 00:06:40;;;;;;;0.80;0.60;;;;;;;;;;5037425;28;20053;-82
2024/02/05 00:09:07;;;;;;;0.82;0.50;;;;;;;;;;5075337;28;20194;-82
2024/02/05 00:11:34;;;;;;;1.10;0.57;;;;;;;;;;5047103;28;20434;-82
2024/02/05 00:14:01;;;;;;;0.70;0.50;;;;;;;;;;5058495;28;20410;-82
2024/02/05 00:16:28;;;;;;;0.60;0.50;;;;;;;;;;5051816;28;20045;-81
2024/02/05 00:18:54;;;;;;;1.85;0.82;;;;;;;;;;5052103;28;20132;-82
2024/02/05 00:21:21;;;;;;;1.75;0.63;;;;;;;;;;5070559;28;20057;-82
2024/02/05 00:23:48;;;;;;;0.80;0.65;;;;;;;;;;5053966;28;20148;-81
2024/02/05 00:26:14;;;;;;;0.50;0.40;;;;;;;;;;5071021;28;20110;-80
2024/02/05 00:28:41;;;;;;;1.30;0.88;;;;;;;;;;5067535;28;20648;-81
2024/02/05 00:31:08;;;;;;;2.67;0.70;;;;;;;;;;5069612;28;20781;-80
2024/02/05 00:33:34;;;;;;;0.57;0.40;;;;;;;;;;5070166;28;20051;-81
2024/02/05 00:36:02;;;;;;;0.77;0.60;;;;;;;;;;5054475;28;20064;-80
2024/02/05 00:38:29;;;;;;;0.90;0.40;;;;;;;;;;5055332;28;20053;-80
2024/02/05 00:40:55;;;;;;;0.20;0.20;;;;;;;;;;5058538;28;20041;-81
2024/02/05 00:43:22;;;;;;;1.65;0.50;;;;;;;;;;5052916;28;20081;-81
2024/02/05 00:45:49;;;;;;;0.85;0.57;;;;;;;;;;5040449;28;20084;-81
2024/02/05 00:48:15;;;;;;;1.17;0.30;;;;;;;;;;5079695;28;20048;-81
2024/02/05 00:50:42;;;;;;;0.38;0.30;;;;;;;;;;5087529;28;20053;-81
2024/02/05 00:53:08;;;;;;;0.95;0.43;;;;;;;;;;5087750;28;20112;-81
2024/02/05 00:55:35;;;;;;;0.95;0.50;;;;;;;;;;5084416;28;20080;-81
2024/02/05 00:58:02;;;;;;;0.93;0.40;;;;;;;;;;5067786;28;20059;-81
2024/02/05 01:00:29;;;;;;;0.38;0.38;;;;;;;;;;5050512;28;20080;-81
2024/02/05 01:02:55;;;;;;;0.30;0.30;;;;;;;;;;5080519;28;20053;-82
2024/02/05 01:05:22;;;;;;;1.27;0.20;;;;;;;;;;5073187;28;20586;-82
2024/02/05 01:07:49;;;;;;;0.30;0.30;;;;;;;;;;5060340;28;20128;-84
2024/02/05 01:10:17;;;;;;;0.30;0.30;;;;;;;;;;5060610;28;20057;-82
2024/02/05 01:12:43;;;;;;;0.88;0.32;;;;;;;;;;5059406;28;20669;-82
2024/02/05 01:15:10;;;;;;;0.30;0.30;;;;;;;;;;5075261;28;20053;-82
2024/02/05 01:17:37;;;;;;;0.45;0.30;;;;;;;;;;5075698;28;20064;-82
2024/02/05 01:20:10;;;;;;;0.30;0.30;;;;;;;;;;5075357;28;20059;-82
2024/02/05 01:22:38;;;;;;;0.38;0.30;;;;;;;;;;5059301;28;20055;-82
2024/02/05 01:25:04;;;;;;;0.30;0.30;;;;;;;;;;5039780;28;20059;-84
2024/02/05 01:27:31;;;;;;;1.45;0.40;;;;;;;;;;5057878;28;20057;-84
2024/02/05 01:29:58;;;;;;;1.30;0.40;;;;;;;;;;5074805;28;20056;-84
2024/02/05 01:32:24;;;;;;;2.65;0.30;;;;;;;;;;5056734;28;20097;-81
2024/02/05 01:34:51;;;;;;;0.60;0.60;;;;;;;;;;5073911;28;20053;-81
2024/02/05 01:37:18;;;;;;;0.40;0.40;;;;;;;;;;5074313;28;20053;-81
2024/02/05 01:39:45;;;;;;;2.15;0.32;;;;;;;;;;5058526;28;20090;-82
2024/02/05 01:42:12;;;;;;;0.22;0.20;;;;;;;;;;5075255;28;20052;-81
2024/02/05 01:44:39;;;;;;;0.30;0.30;;;;;;;;;;5075821;28;20087;-81
2024/02/05 01:47:05;;;;;;;0.55;0.30;;;;;;;;;;5060884;28;20099;-83
2024/02/05 01:49:32;;;;;;;0.40;0.30;;;;;;;;;;5061638;28;20140;-83
2024/02/05 01:51:59;;;;;;;1.15;0.35;;;;;;;;;;5061890;28;20049;-82
2024/02/05 01:54:26;;;;;;;0.85;0.40;;;;;;;;;;5077457;28;20049;-82
2024/02/05 01:56:52;;;;;;;1.88;1.08;;;;;;;;;;5061267;28;20111;-83
2024/02/05 01:59:19;;;;;;;1.13;0.32;;;;;;;;;;5080074;28;20079;-81
2024/02/05 02:01:45;;;;;;;0.43;0.40;;;;;;;;;;5066465;28;20080;-81
2024/02/05 02:04:12;;;;;;;0.52;0.50;;;;;;;;;;5065756;28;20053;-81
2024/02/05 02:06:39;;;;;;;0.32;0.32;;;;;;;;;;5064455;28;20067;-81
2024/02/05 02:09:10;;;;;;;0.63;0.40;;;;;;;;;;5078847;28;20059;-82
2024/02/05 02:11:41;;;;;;;0.57;0.50;;;;;;;;;;5058324;28;20053;-82
2024/02/05 02:14:08;;;;;;;1.13;0.52;;;;;;;;;;5053293;28;20060;-82
2024/02/05 02:16:35;;;;;;;2.30;0.50;;;;;;;;;;5054956;28;20060;-81
2024/02/05 02:19:03;;;;;;;0.38;0.30;;;;;;;;;;5073652;28;20049;-82
2024/02/05 02:21:30;;;;;;;1.02;0.35;;;;;;;;;;5040777;28;20566;-82
2024/02/05 02:23:57;;;;;;;0.68;0.35;;;;;;;;;;5057136;28;20117;-82
2024/02/05 02:26:23;;;;;;;0.40;0.38;;;;;;;;;;5059295;28;20079;-82
2024/02/05 02:28:50;;;;;;;0.75;0.47;;;;;;;;;;5078968;28;20076;-81
2024/02/05 02:31:17;;;;;;;0.98;0.30;;;;;;;;;;5066792;28;20061;-81
2024/02/05 02:33:56;;;;;;;0.80;0.50;;;;;;;;;;5067098;28;20053;-79
2024/02/05 02:36:26;;;;;;;0.20;0.20;;;;;;;;;;5081444;28;20049;-80
2024/02/05 02:39:05;;;;;;;1.48;0.45;;;;;;;;;;5039359;28;20045;-79
2024/02/05 02:41:33;;;;;;;1.83;0.40;;;;;;;;;;5050923;28;20495;-82
2024/02/05 02:44:00;;;;;;;0.50;0.30;;;;;;;;;;5051072;28;20492;-81
2024/02/05 02:46:28;;;;;;;3.45;0.70;;;;;;;;;;5054833;28;20083;-80
2024/02/05 02:48:55;;;;;;;1.02;0.32;;;;;;;;;;5060679;28;20052;-80
2024/02/05 02:51:22;;;;;;;2.38;0.55;;;;;;;;;;5065482;28;20132;-79
2024/02/05 02:53:49;;;;;;;0.25;0.20;;;;;;;;;;5063285;28;20095;-81
2024/02/05 02:56:16;;;;;;;0.20;0.15;;;;;;;;;;5046011;28;20072;-79
2024/02/05 02:58:42;;;;;;;0.20;0.20;;;;;;;;;;5072828;28;20080;-81
2024/02/05 03:01:09;;;;;;;0.32;0.20;;;;;;;;;;5068608;28;20473;-77
2024/02/05 03:03:35;;;;;;;0.82;0.32;;;;;;;;;;5056006;28;20052;-79
2024/02/05 03:06:03;;;;;;;1.00;0.20;;;;;;;;;;5077418;28;20051;-78
2024/02/05 03:08:29;;;;;;;0.75;0.30;;;;;;;;;;5075030;28;20056;-79
2024/02/05 03:10:56;;;;;;;1.90;0.20;;;;;;;;;;5063764;28;20053;-79
2024/02/05 03:13:22;;;;;;;0.52;0.20;;;;;;;;;;5048355;28;20045;-79
2024/02/05 03:15:49;;;;;;;0.40;0.30;;;;;;;;;;5065160;28;20501;-78
2024/02/05 03:18:16;;;;;;;1.00;0.20;;;;;;;;;;5065358;28;20049;-79
2024/02/05 03:20:43;;;;;;;0.28;0.20;;;;;;;;;;5062678;28;20056;-78
2024/02/05 03:23:10;;;;;;;0.25;0.20;;;;;;;;;;5062640;28;20079;-79
2024/02/05 03:25:38;;;;;;;0.38;0.17;;;;;;;;;;5043079;28;20318;-79
2024/02/05 03:28:06;;;;;;;0.43;0.20;;;;;;;;;;5060831;28;20048;-78
2024/02/05 03:30:33;;;;;;;0.52;0.30;;;;;;;;;;5045178;28;20084;-78
2024/02/05 03:33:01;;;;;;;0.95;0.22;;;;;;;;;;5064037;28;20150;-78
2024/02/05 03:35:28;;;;;;;0.22;0.10;;;;;;;;;;5040211;28;20053;-79
2024/02/05 03:37:54;;;;;;;1.70;0.30;;;;;;;;;;5043356;28;20075;-79
2024/02/05 03:40:22;;;;;;;1.30;0.52;;;;;;;;;;5044733;28;20052;-80
2024/02/05 03:42:49;;;;;;;1.10;0.30;;;;;;;;;;5062208;28;20061;-80
2024/02/05 03:45:16;;;;;;;0.73;0.20;;;;;;;;;;5055895;28;20048;-80
2024/02/05 03:47:43;;;;;;;0.63;0.20;;;;;;;;;;5045332;28;20057;-79
2024/02/05 03:50:10;;;;;;;1.17;0.30;;;;;;;;;;5062890;28;20059;-79
2024/02/05 03:52:39;;;;;;;0.28;0.17;;;;;;;;;;5061699;28;20510;-79
2024/02/05 03:55:06;;;;;;;0.82;0.40;;;;;;;;;;5038716;28;20487;-79
2024/02/05 03:57:35;;;;;;;0.98;0.50;;;;;;;;;;5059923;28;20418;-79
2024/02/05 04:00:02;;;;;;;2.47;0.20;;;;;;;;;;5035696;28;20049;-79
2024/02/05 04:02:28;;;;;;;0.38;0.17;;;;;;;;;;5037991;28;20052;-79
2024/02/05 04:04:57;;;;;;;0.40;0.20;;;;;;;;;;5050511;28;20053;-79
2024/02/05 04:07:24;;;;;;;2.08;0.30;;;;;;;;;;5074405;28;20155;-79
2024/02/05 04:09:50;;;;;;;0.00;0.00;;;;;;;;;;5049845;28;20057;-79
2024/02/05 04:12:17;;;;;;;0.38;0.10;;;;;;;;;;5043576;28;20131;-79
2024/02/05 04:14:44;;;;;;;1.27;0.22;;;;;;;;;;5075789;28;20049;-81
2024/02/05 04:17:10;;;;;;;0.82;0.30;;;;;;;;;;5039095;28;20048;-80
2024/02/05 04:19:43;;;;;;;1.88;0.30;;;;;;;;;;5060514;28;20049;-81
2024/02/05 04:22:10;;;;;;;0.13;0.13;;;;;;;;;;5043468;28;20072;-81
2024/02/05 04:24:37;;;;;;;1.92;0.30;;;;;;;;;;5041177;28;20065;-81
2024/02/05 04:27:04;;;;;;;2.78;0.20;;;;;;;;;;5043298;28;20064;-81
2024/02/05 04:29:31;;;;;;;1.35;0.10;;;;;;;;;;5059749;28;20049;-80
2024/02/05 04:31:58;;;;;;;0.20;0.20;;;;;;;;;;5044530;28;20053;-80
2024/02/05 04:34:24;;;;;;;0.60;0.28;;;;;;;;;;5038016;28;20049;-82
2024/02/05 04:36:52;;;;;;;0.63;0.45;;;;;;;;;;5055795;28;20045;-81
2024/02/05 04:39:19;;;;;;;0.82;0.43;;;;;;;;;;5076839;28;20080;-81
2024/02/05 04:41:47;;;;;;;0.10;0.10;;;;;;;;;;5075468;28;20057;-80
2024/02/05 04:44:17;;;;;;;1.00;0.20;;;;;;;;;;5058910;28;20131;-81
2024/02/05 04:46:44;;;;;;;0.68;0.20;;;;;;;;;;5044094;28;20116;-81
2024/02/05 04:49:11;;;;;;;0.80;0.10;;;;;;;;;;5079042;28;20060;-80
2024/02/05 04:51:37;;;;;;;1.25;0.10;;;;;;;;;;5059929;28;20068;-80
2024/02/05 04:54:05;;;;;;;0.52;0.17;;;;;;;;;;5061521;28;20055;-81
2024/02/05 04:56:32;;;;;;;0.47;0.13;;;;;;;;;;5061813;28;20049;-79
2024/02/05 04:58:58;;;;;;;0.03;0.03;;;;;;;;;;5078823;28;20052;-80
2024/02/05 05:01:25;;;;;;;0.60;0.10;;;;;;;;;;5045275;28;20102;-80
2024/02/05 05:03:52;;;;;;;1.15;1.00;;;;;;;;;;5081027;28;20057;-80
2024/02/05 05:06:18;;;;;;;0.77;0.15;;;;;;;;;;5078545;28;20080;-81
2024/02/05 05:08:45;;;;;;;1.10;0.28;;;;;;;;;;5078544;28;20068;-81
2024/02/05 05:11:22;;;;;;;0.32;0.30;;;;;;;;;;5062667;28;20611;-80
2024/02/05 05:13:49;;;;;;;0.20;0.20;;;;;;;;;;5063719;28;20053;-80
2024/02/05 05:16:19;;;;;;;0.30;0.20;;;;;;;;;;5063916;28;20068;-81
2024/02/05 05:18:46;;;;;;;16.15;11.95;;;;;;;;;;5063591;28;20049;-80
2024/02/05 05:21:13;;;;;;;3.50;1.88;;;;;;;;;;5061475;28;20048;-80
2024/02/05 05:23:40;;;;;;;1.40;0.80;;;;;;;;;;5072339;28;20056;-79
2024/02/05 05:26:07;;;;;;;0.63;0.57;;;;;;;;;;5065644;28;20060;-80
2024/02/05 05:28:33;;;;;;;1.60;0.90;;;;;;;;;;5065400;28;20059;-80
2024/02/05 05:31:00;;;;;;;1.33;0.65;;;;;;;;;;5044028;28;20078;-82
2024/02/05 05:33:27;;;;;;;0.70;0.50;;;;;;;;;;5075558;28;20060;-81
2024/02/05 05:35:53;;;;;;;0.95;0.50;;;;;;;;;;5064534;28;21800;-81
2024/02/05 05:38:20;;;;;;;1.27;0.70;;;;;;;;;;5054450;28;20049;-81
2024/02/05 05:40:47;;;;;;;0.77;0.65;;;;;;;;;;5074789;28;20075;-80
2024/02/05 05:43:13;;;;;;;1.23;0.60;;;;;;;;;;5071455;28;20057;-80
2024/02/05 05:45:40;;;;;;;0.20;0.20;;;;;;;;;;5045406;28;20069;-81
2024/02/05 05:48:07;;;;;;;0.82;0.50;;;;;;;;;;5067964;28;20202;-81
2024/02/05 05:50:34;;;;;;;1.13;0.50;;;;;;;;;;5046750;28;20045;-79
2024/02/05 05:53:01;;;;;;;2.67;0.70;;;;;;;;;;5055089;28;20140;-79
2024/02/05 05:55:27;;;;;;;1.25;0.50;;;;;;;;;;5055473;28;20045;-78
2024/02/05 05:57:55;;;;;;;1.85;0.70;;;;;;;;;;5053323;28;20107;-89
2024/02/05 06:00:22;;;;;;;1.00;0.50;;;;;;;;;;5038098;28;20081;-79
2024/02/05 06:02:49;;;;;;;0.90;0.50;;;;;;;;;;5060323;28;20056;-79
2024/02/05 06:05:16;;;;;;;1.75;0.60;;;;;;;;;;5059139;28;20059;-80
2024/02/05 06:07:44;;;;;;;1.85;0.35;;;;;;;;;;5070318;28;20137;-80
2024/02/05 06:10:11;;;;;;;2.22;0.50;;;;;;;;;;5058840;28;20525;-81
2024/02/05 06:12:39;;;;;;;0.80;0.70;;;;;;;;;;5058915;28;20598;-78
2024/02/05 06:15:07;;;;;;;0.47;0.47;;;;;;;;;;5075210;28;20047;-76
2024/02/05 06:17:34;;;;;;;1.10;0.70;;;;;;;;;;5050100;28;20080;-78
2024/02/05 06:20:02;;;;;;;3.03;0.57;;;;;;;;;;5050375;28;20057;-78
2024/02/05 06:22:29;;;;;;;1.73;0.80;;;;;;;;;;5035512;28;20053;-78
2024/02/05 06:24:55;;;;;;;2.30;0.85;;;;;;;;;;5070305;28;20064;-77
2024/02/05 06:27:22;;;;;;;0.55;0.50;;;;;;;;;;5051297;28;20167;-78
2024/02/05 06:29:50;;;;;;;1.13;0.57;;;;;;;;;;5034254;28;20643;-77
2024/02/05 06:32:16;;;;;;;1.15;0.68;;;;;;;;;;5045929;28;20174;-78
2024/02/05 06:34:44;;;;;;;1.15;0.65;;;;;;;;;;5039504;28;20049;-78
2024/02/05 06:37:11;;;;;;;0.57;0.55;;;;;;;;;;5044956;28;20400;-80
2024/02/05 06:39:39;;;;;;;4.30;1.27;;;;;;;;;;5048451;28;20060;-80
2024/02/05 06:42:05;;;;;;;1.85;0.98;;;;;;;;;;5043837;28;20073;-78
2024/02/05 06:44:32;;;;;;;2.13;1.10;;;;;;;;;;5073201;28;20049;-78
2024/02/05 06:47:02;;;;;;;5.95;0.90;;;;;;;;;;5075571;28;20374;-79
2024/02/05 06:49:29;;;;;;;4.70;1.15;;;;;;;;;;5062757;28;20140;-78
2024/02/05 06:51:56;;;;;;;3.55;0.85;;;;;;;;;;5061592;28;20113;-79
2024/02/05 06:54:22;;;;;;;1.75;1.08;;;;;;;;;;5062707;28;20055;-79
2024/02/05 06:56:49;;;;;;;2.05;0.93;;;;;;;;;;5045684;28;20053;-79
2024/02/05 06:59:16;;;;;;;2.17;0.85;;;;;;;;;;5047416;28;20044;-79
2024/02/05 07:01:43;;;;;;;3.75;1.13;;;;;;;;;;5061908;28;20049;-79
2024/02/05 07:04:09;;;;;;;1.58;1.08;;;;;;;;;;5062167;28;20116;-79
2024/02/05 07:06:37;;;;;;;2.45;1.25;;;;;;;;;;5057201;28;20053;-79
2024/02/05 07:09:04;;;;;;;1.42;0.88;;;;;;;;;;5061662;28;20056;-79
2024/02/05 07:11:30;;;;;;;1.42;0.82;;;;;;;;;;5040428;28;20053;-79
2024/02/05 07:13:57;;;;;;;0.90;0.88;;;;;;;;;;5075661;28;20103;-79
2024/02/05 07:16:23;;;;;;;1.70;0.80;;;;;;;;;;5060329;28;20048;-79
2024/02/05 07:18:50;;;;;;;3.50;0.98;;;;;;;;;;5076287;28;20518;-79
2024/02/05 07:21:17;;;;;;;1.23;0.80;;;;;;;;;;5078031;28;20044;-79
2024/02/05 07:23:44;;;;;;;1.75;1.02;;;;;;;;;;5060191;28;20053;-79
2024/02/05 07:26:11;;;;;;;2.17;0.90;;;;;;;;;;5077201;28;20105;-79
2024/02/05 07:28:38;;;;;;;2.00;1.10;;;;;;;;;;5057090;28;20068;-78
2024/02/05 07:31:04;;;;;;;2.60;1.00;;;;;;;;;;5051740;28;20049;-79
2024/02/05 07:33:31;;;;;;;4.32;1.02;;;;;;;;;;5036387;28;20051;-79
2024/02/05 07:35:59;;;;;;;2.05;1.10;;;;;;;;;;5071531;28;20052;-79
2024/02/05 07:38:25;;;;;;;2.17;0.82;;;;;;;;;;5056110;28;20048;-79
2024/02/05 07:40:52;;;;;;;0.60;0.60;;;;;;;;;;5057337;28;20055;-79
2024/02/05 07:43:19;;;;;;;1.23;0.68;;;;;;;;;;5057571;28;20068;-79
2024/02/05 07:45:45;;;;;;;1.50;0.50;;;;;;;;;;5058169;28;20079;-79
2024/02/05 07:48:12;;;;;;;7.90;1.15;;;;;;;;;;5077164;28;20056;-79
2024/02/05 07:50:39;;;;;;;0.65;0.50;;;;;;;;;;5063912;28;20071;-79
2024/02/05 07:53:06;;;;;;;4.25;1.65;;;;;;;;;;5061780;28;20049;-79
2024/02/05 07:55:32;;;;;;;4.90;2.45;;;;;;;;;;5045054;28;20045;-79
2024/02/05 07:57:59;;;;;;;1.95;1.08;;;;;;;;;;5075827;28;20056;-79
2024/02/05 08:00:26;;;;;;;3.60;1.05;;;;;;;;;;5040191;28;20052;-81
2024/02/05 08:02:52;;;;;;;1.25;1.02;;;;;;;;;;5035494;28;20490;-76
2024/02/05 08:05:20;;;;;;;1.77;0.70;;;;;;;;;;5050662;28;20060;-79
2024/02/05 08:07:47;;;;;;;1.65;0.70;;;;;;;;;;5034908;28;20053;-80
2024/02/05 08:10:14;;;;;;;1.30;0.80;;;;;;;;;;5059492;28;20057;-76
2024/02/05 08:12:41;;;;;;;5.80;1.88;;;;;;;;;;5046636;28;20052;-79
2024/02/05 08:15:09;;;;;;;2.30;0.68;;;;;;;;;;5029508;28;20057;-76
2024/02/05 08:17:35;;;;;;;3.03;1.05;;;;;;;;;;5048094;28;20049;-76
2024/02/05 08:20:03;;;;;;;2.47;0.90;;;;;;;;;;5049382;28;20056;-76
2024/02/05 08:22:30;;;;;;;1.05;0.82;;;;;;;;;;5030283;28;20053;-76
2024/02/05 08:24:57;;;;;;;1.13;0.80;;;;;;;;;;5064730;28;20132;-77
2024/02/05 08:27:24;;;;;;;2.92;0.60;;;;;;;;;;5048173;28;20529;-76
2024/02/05 08:29:51;;;;;;;0.80;0.63;;;;;;;;;;5064713;28;20053;-76
2024/02/05 08:32:17;;;;;;;0.90;0.70;;;;;;;;;;5064265;28;20049;-76
2024/02/05 08:34:44;;;;;;;0.85;0.50;;;;;;;;;;5064309;28;20502;-76
2024/02/05 08:37:11;;;;;;;2.13;0.73;;;;;;;;;;5064433;28;20055;-76
2024/02/05 08:39:38;;;;;;;0.80;0.70;;;;;;;;;;5064717;28;20131;-76
2024/02/05 08:42:04;;;;;;;1.08;0.63;;;;;;;;;;5062026;28;20049;-76
2024/02/05 08:44:50;;;;;;;1.23;0.32;;;;;;;;;;5048019;28;20057;-75
2024/02/05 08:47:16;;;;;;;1.42;0.57;;;;;;;;;;5064336;28;20053;-76
2024/02/05 08:49:43;;;;;;;3.05;0.73;;;;;;;;;;5064269;28;20088;-76
2024/02/05 08:52:15;;;;;;;1.63;0.52;;;;;;;;;;5061727;28;20057;-76
2024/02/05 08:54:42;;;;;;;1.88;0.57;;;;;;;;;;5047529;28;20051;-76
2024/02/05 08:57:09;;;;;;;1.20;0.40;;;;;;;;;;5031392;28;20087;-75
2024/02/05 08:59:35;;;;;;;1.80;0.40;;;;;;;;;;5031706;28;20045;-80
2024/02/05 09:02:02;;;;;;;0.65;0.45;;;;;;;;;;5069646;28;20048;-79
2024/02/05 09:04:29;;;;;;;2.05;0.50;;;;;;;;;;5069303;28;20099;-77
2024/02/05 09:06:56;;;;;;;0.80;0.50;;;;;;;;;;5066430;28;20048;-78
2024/02/05 09:09:23;;;;;;;0.75;0.35;;;;;;;;;;5046388;28;20176;-76
2024/02/05 09:11:50;;;;;;;2.10;0.50;;;;;;;;;;5058216;28;20148;-76
2024/02/05 09:14:33;;;;;;;1.95;1.00;;;;;;;;;;5050816;28;20127;-77
2024/02/05 09:16:59;;;;;;;1.33;0.50;;;;;;;;;;5049430;28;20064;-81
2024/02/05 09:19:26;;;;;;;2.50;0.50;;;;;;;;;;5035236;28;20041;-80
2024/02/05 09:21:54;;;;;;;1.95;0.40;;;;;;;;;;5068142;28;20048;-77
2024/02/05 09:24:23;;;;;;;1.25;0.45;;;;;;;;;;5066435;28;20053;-80
2024/02/05 09:26:49;;;;;;;1.30;0.80;;;;;;;;;;5055699;28;20048;-77
2024/02/05 09:29:16;;;;;;;3.25;0.60;;;;;;;;;;5070250;28;20057;-76
2024/02/05 09:31:43;;;;;;;1.63;0.50;;;;;;;;;;5037209;28;20049;-76
2024/02/05 09:34:12;;;;;;;0.55;0.40;;;;;;;;;;5070397;28;20061;-76
2024/02/05 09:36:39;;;;;;;2.08;1.15;;;;;;;;;;5070613;28;20053;-77
2024/02/05 09:39:05;;;;;;;1.90;0.57;;;;;;;;;;5051177;28;20119;-78
2024/02/05 09:41:33;;;;;;;0.77;0.38;;;;;;;;;;5031729;28;20053;-79
2024/02/05 09:43:59;;;;;;;1.85;0.60;;;;;;;;;;5067511;28;20061;-78
2024/02/05 09:46:26;;;;;;;4.45;0.60;;;;;;;;;;5069017;28;20052;-79
2024/02/05 09:48:53;;;;;;;0.77;0.45;;;;;;;;;;5071424;28;20133;-78
2024/02/05 09:51:20;;;;;;;1.10;0.50;;;;;;;;;;5057203;28;20057;-78
2024/02/05 09:53:46;;;;;;;1.95;0.70;;;;;;;;;;5066496;28;20058;-78
2024/02/05 09:56:14;;;;;;;4.80;0.52;;;;;;;;;;5062199;28;20053;-78
2024/02/05 09:58:41;;;;;;;0.55;0.40;;;;;;;;;;5042486;28;20057;-78
2024/02/05 10:01:10;;;;;;;1.25;0.40;;;;;;;;;;5038839;28;20053;-78
2024/02/05 10:03:37;;;;;;;2.40;0.70;;;;;;;;;;5054363;28;20057;-78
2024/02/05 10:06:04;;;;;;;1.75;0.50;;;;;;;;;;5037660;28;20108;-79
2024/02/05 10:08:32;;;;;;;3.08;0.93;;;;;;;;;;5057871;28;20044;-79
2024/02/05 10:10:59;;;;;;;2.85;0.50;;;;;;;;;;5052662;28;20616;-79
2024/02/05 10:13:25;;;;;;;0.88;0.50;;;;;;;;;;5039960;28;20465;-78
2024/02/05 10:15:52;;;;;;;3.03;0.73;;;;;;;;;;5051916;28;20498;-79
2024/02/05 10:18:19;;;;;;;0.90;0.52;;;;;;;;;;5047847;28;20135;-78
2024/02/05 10:20:46;;;;;;;3.70;0.70;;;;;;;;;;5055953;28;20053;-79
2024/02/05 10:23:13;;;;;;;2.97;0.77;;;;;;;;;;5035565;28;20478;-78
2024/02/05 10:25:39;;;;;;;2.70;0.50;;;;;;;;;;5049401;28;20053;-79
2024/02/05 10:28:06;;;;;;;6.57;0.70;;;;;;;;;;5048710;28;20055;-80
2024/02/05 10:30:34;;;;;;;2.33;0.63;;;;;;;;;;5035074;28;20063;-80
2024/02/05 10:33:01;;;;;;;3.97;0.75;;;;;;;;;;5032796;28;20053;-80
2024/02/05 10:35:28;;;;;;;4.05;0.80;;;;;;;;;;5048193;28;20049;-80
2024/02/05 10:38:08;;;;;;;1.23;0.60;;;;;;;;;;5066333;28;20049;-79
2024/02/05 10:40:35;;;;;;;3.17;0.70;;;;;;;;;;5052817;28;20048;-80
2024/02/05 10:43:04;;;;;;;4.22;0.90;;;;;;;;;;5046492;28;20045;-79
2024/02/05 10:45:31;;;;;;;2.33;0.70;;;;;;;;;;5028139;28;20080;-80
2024/02/05 10:47:58;;;;;;;2.65;0.73;;;;;;;;;;5044579;28;20053;-79
2024/02/05 10:50:25;;;;;;;1.75;0.90;;;;;;;;;;5046682;28;20418;-80
2024/02/05 10:52:52;;;;;;;4.88;1.20;;;;;;;;;;5053980;28;20056;-80
2024/02/05 10:55:18;;;;;;;7.72;3.03;;;;;;;;;;5034081;28;20053;-79
2024/02/05 10:57:45;;;;;;;3.55;1.58;;;;;;;;;;5034197;28;20049;-79
2024/02/05 11:00:13;;;;;;;6.25;1.67;;;;;;;;;;5052115;28;20049;-80
2024/02/05 11:02:41;;;;;;;3.03;1.02;;;;;;;;;;5032860;28;20465;-80
2024/02/05 11:05:08;;;;;;;3.53;0.88;;;;;;;;;;5034039;28;20060;-80
2024/02/05 11:07:37;;;;;;;1.58;0.70;;;;;;;;;;5042531;28;20049;-78
2024/02/05 11:10:04;;;;;;;1.60;0.75;;;;;;;;;;5030050;28;20053;-80
2024/02/05 11:12:31;;;;;;;2.70;1.20;;;;;;;;;;5033853;28;20060;-80
2024/02/05 11:15:01;;;;;;;3.22;1.05;;;;;;;;;;5047462;28;20102;-80
2024/02/05 11:17:28;;;;;;;5.00;1.08;;;;;;;;;;5024370;28;20049;-80
2024/02/05 11:19:54;;;;;;;1.45;0.60;;;;;;;;;;5038880;28;20050;-78
2024/02/05 11:22:22;;;;;;;4.03;0.80;;;;;;;;;;5046249;28;20120;-79
2024/02/05 11:24:49;;;;;;;4.95;0.80;;;;;;;;;;5027657;28;20053;-79
2024/02/05 11:27:16;;;;;;;3.53;0.70;;;;;;;;;;5048161;28;20102;-78
2024/02/05 11:29:43;;;;;;;0.85;0.50;;;;;;;;;;5049885;28;20057;-79
2024/02/05 11:32:10;;;;;;;2.28;0.60;;;;;;;;;;5030866;28;20045;-79
2024/02/05 11:34:37;;;;;;;6.72;1.77;;;;;;;;;;5050568;28;20053;-79
2024/02/05 11:37:08;;;;;;;3.75;0.90;;;;;;;;;;5045727;28;20064;-79
2024/02/05 11:39:35;;;;;;;2.15;0.80;;;;;;;;;;5046949;28;20107;-79
2024/02/05 11:42:08;;;;;;;4.03;1.48;;;;;;;;;;5048797;28;20106;-79
2024/02/05 11:44:35;;;;;;;4.38;0.88;;;;;;;;;;5045831;28;20059;-79
2024/02/05 11:47:03;;;;;;;5.90;1.40;;;;;;;;;;5042424;28;20053;-79
2024/02/05 11:49:30;;;;;;;2.25;1.05;;;;;;;;;;5026539;28;20407;-79
2024/02/05 11:51:57;;;;;;;5.07;0.98;;;;;;;;;;5031358;28;20098;-79
2024/02/05 11:54:23;;;;;;;4.38;0.98;;;;;;;;;;5051024;28;20483;-79
2024/02/05 11:56:50;;;;;;;1.05;0.60;;;;;;;;;;5053626;28;20506;-80
2024/02/05 11:59:17;;;;;;;4.40;1.10;;;;;;;;;;5029062;28;20045;-80
2024/02/05 12:01:43;;;;;;;1.52;1.20;;;;;;;;;;5065686;28;20136;-80
2024/02/05 12:04:10;;;;;;;1.80;0.70;;;;;;;;;;5049179;28;20053;-80
2024/02/05 12:06:37;;;;;;;3.30;0.93;;;;;;;;;;5049129;28;20067;-80
2024/02/05 12:09:06;;;;;;;4.05;1.10;;;;;;;;;;5062771;28;20057;-80
2024/02/05 12:11:36;;;;;;;1.63;0.80;;;;;;;;;;5044034;28;20136;-80
2024/02/05 12:14:06;;;;;;;5.75;1.00;;;;;;;;;;5049826;28;20053;-79
2024/02/05 12:16:33;;;;;;;5.07;0.65;;;;;;;;;;5049948;28;20087;-80
2024/02/05 12:19:00;;;;;;;2.30;0.80;;;;;;;;;;5044689;28;20049;-80
2024/02/05 12:21:38;;;;;;;4.07;1.02;;;;;;;;;;5033070;28;20140;-80
2024/02/05 12:24:06;;;;;;;5.65;1.20;;;;;;;;;;5023926;28;20072;-79
2024/02/05 12:26:33;;;;;;;2.55;0.80;;;;;;;;;;5050151;28;20056;-79
2024/02/05 12:29:00;;;;;;;4.57;0.70;;;;;;;;;;5047673;28;20114;-80
2024/02/05 12:31:26;;;;;;;3.50;0.88;;;;;;;;;;5032127;28;20053;-80
2024/02/05 12:33:58;;;;;;;2.95;1.00;;;;;;;;;;5063539;28;20469;-80
2024/02/05 12:36:28;;;;;;;3.22;0.80;;;;;;;;;;5050725;28;20104;-80
2024/02/05 12:38:55;;;;;;;1.83;0.73;;;;;;;;;;5048401;28;20095;-80
2024/02/05 12:41:23;;;;;;;4.78;1.92;;;;;;;;;;5043497;28;20099;-80
2024/02/05 12:43:50;;;;;;;5.40;1.30;;;;;;;;;;5050699;28;20053;-79
2024/02/05 12:46:16;;;;;;;3.78;1.80;;;;;;;;;;5024144;28;20057;-79
2024/02/05 12:48:43;;;;;;;4.65;2.10;;;;;;;;;;5050006;28;20511;-80
2024/02/05 12:51:10;;;;;;;5.63;1.08;;;;;;;;;;5051426;28;20139;-79
2024/02/05 12:53:39;;;;;;;4.13;1.23;;;;;;;;;;5043039;28;20419;-79
2024/02/05 12:56:05;;;;;;;4.68;0.95;;;;;;;;;;5037809;28;20106;-80
2024/02/05 12:58:32;;;;;;;4.20;0.82;;;;;;;;;;5033871;28;20053;-81
2024/02/05 13:00:59;;;;;;;6.45;1.10;;;;;;;;;;5048183;28;20053;-80
2024/02/05 13:03:26;;;;;;;4.72;1.17;;;;;;;;;;5051406;28;20560;-81
2024/02/05 13:05:52;;;;;;;2.83;1.42;;;;;;;;;;5029432;28;20060;-80
2024/02/05 13:08:19;;;;;;;3.55;0.80;;;;;;;;;;5030116;28;20045;-77
2024/02/05 13:10:46;;;;;;;5.68;1.52;;;;;;;;;;5050692;28;20064;-78
2024/02/05 13:13:13;;;;;;;1.60;0.82;;;;;;;;;;5059088;28;20071;-78
2024/02/05 13:15:40;;;;;;;11.18;1.30;;;;;;;;;;5029740;28;20049;-78
2024/02/05 13:18:10;;;;;;;5.13;1.00;;;;;;;;;;5055206;28;20049;-77
2024/02/05 13:20:38;;;;;;;5.32;1.08;;;;;;;;;;5036243;28;20083;-78
2024/02/05 13:23:05;;;;;;;6.50;1.10;;;;;;;;;;5047300;28;20111;-78
2024/02/05 13:25:31;;;;;;;3.50;0.90;;;;;;;;;;5067883;28;20052;-78
2024/02/05 13:28:03;;;;;;;2.17;1.10;;;;;;;;;;5069502;28;20068;-78
2024/02/05 13:30:30;;;;;;;3.00;0.90;;;;;;;;;;5060278;28;20053;-78
2024/02/05 13:32:56;;;;;;;9.07;1.85;;;;;;;;;;5059560;28;20110;-79
2024/02/05 13:35:23;;;;;;;5.15;1.30;;;;;;;;;;5057715;28;20045;-78
2024/02/05 13:37:51;;;;;;;10.85;2.03;;;;;;;;;;5062324;28;20060;-78
2024/02/05 13:40:17;;;;;;;18.48;2.42;;;;;;;;;;5062333;28;20037;-78
2024/02/05 13:42:47;;;;;;;10.02;2.42;;;;;;;;;;5054843;28;20057;-78
2024/02/05 13:45:15;;;;;;;7.18;2.05;;;;;;;;;;5063294;28;20083;-78
2024/02/05 13:47:42;;;;;;;6.03;1.73;;;;;;;;;;5051741;28;20057;-78
2024/02/05 13:50:11;;;;;;;7.18;1.50;;;;;;;;;;5059554;28;20559;-78
2024/02/05 13:52:43;;;;;;;4.88;1.52;;;;;;;;;;5035784;28;20061;-79
2024/02/05 13:55:12;;;;;;;6.32;1.92;;;;;;;;;;5056315;28;20056;-78
2024/02/05 13:57:39;;;;;;;7.50;1.88;;;;;;;;;;5039731;28;20057;-77
2024/02/05 14:00:08;;;;;;;10.57;1.75;;;;;;;;;;5051349;28;20110;-78
2024/02/05 14:02:35;;;;;;;8.35;2.20;;;;;;;;;;5053745;28;20044;-78
2024/02/05 14:05:02;;;;;;;10.25;2.00;;;;;;;;;;5066035;28;20055;-80
2024/02/05 14:07:30;;;;;;;11.00;1.52;;;;;;;;;;5052298;28;20049;-79
2024/02/05 14:09:57;;;;;;;12.60;2.95;;;;;;;;;;5049760;28;20072;-81
2024/02/05 14:12:24;;;;;;;5.22;1.70;;;;;;;;;;5028094;28;20046;-77
2024/02/05 14:14:51;;;;;;;9.15;1.65;;;;;;;;;;5054156;28;20045;-78
2024/02/05 14:17:18;;;;;;;7.55;1.38;;;;;;;;;;5048860;28;20045;-85
2024/02/05 14:19:45;;;;;;;9.32;1.60;;;;;;;;;;5056399;28;20041;-86
2024/02/05 14:22:12;;;;;;;9.98;1.75;;;;;;;;;;5035551;28;20191;-82
2024/02/05 14:24:39;;;;;;;6.30;1.58;;;;;;;;;;5057208;28;20055;-79
2024/02/05 14:27:06;;;;;;;6.05;1.70;;;;;;;;;;5035577;28;20053;-82
2024/02/05 14:29:32;;;;;;;4.60;1.40;;;;;;;;;;5032707;28;20115;-83
2024/02/05 14:31:59;;;;;;;7.18;1.33;;;;;;;;;;5052249;28;20092;-83
2024/02/05 14:34:26;;;;;;;9.32;1.70;;;;;;;;;;5041440;28;20045;-84
2024/02/05 14:36:52;;;;;;;3.90;2.08;;;;;;;;;;5045708;28;20140;-83
2024/02/05 14:39:19;;;;;;;7.70;1.30;;;;;;;;;;5052898;28;20099;-83
2024/02/05 14:41:52;;;;;;;5.88;2.28;;;;;;;;;;5027686;28;20065;-80
2024/02/05 14:44:19;;;;;;;6.85;1.48;;;;;;;;;;5059161;28;20486;-79